createdAt,value
2019-02-18T00:01:26.367Z,-1.90
2019-02-18T00:03:57.536Z,-1.90
2019-02-18T00:06:28.640Z,-1.90
2019-02-18T00:08:59.733Z,-2.00
2019-02-18T00:11:30.841Z,-2.00
2019-02-18T00:14:01.981Z,-2.00
2019-02-18T00:16:33.125Z,-2.00
2019-02-18T00:19:04.240Z,-2.00
2019-02-18T00:21:35.325Z,-2.00
2019-02-18T00:24:06.412Z,-2.00
2019-02-18T00:26:37.496Z,-2.10
2019-02-18T00:29:08.615Z,-2.00
2019-02-18T00:31:39.678Z,-2.00
2019-02-18T00:34:10.804Z,-1.90
2019-02-18T00:36:41.901Z,-1.90
2019-02-18T00:39:13.042Z,-2.00
2019-02-18T00:41:44.103Z,-2.10
2019-02-18T00:44:15.171Z,-2.10
2019-02-18T00:46:46.238Z,-2.20
2019-02-18T00:49:17.368Z,-2.20
2019-02-18T00:51:48.400Z,-2.20
2019-02-18T00:54:19.531Z,-2.20
2019-02-18T00:56:50.589Z,-2.20
2019-02-18T00:59:21.711Z,-2.20
2019-02-18T01:01:52.793Z,-2.20
2019-02-18T01:04:23.890Z,-2.20
2019-02-18T01:06:54.955Z,-2.20
2019-02-18T01:09:26.064Z,-2.20
2019-02-18T01:11:57.158Z,-2.30
2019-02-18T01:14:28.231Z,-2.30
2019-02-18T01:16:59.269Z,-2.30
2019-02-18T01:19:30.356Z,-2.30
2019-02-18T01:22:01.484Z,-2.40
2019-02-18T01:24:32.543Z,-2.40
2019-02-18T01:27:03.613Z,-2.40
2019-02-18T01:29:35.743Z,-2.50
2019-02-18T01:32:06.838Z,-2.50
2019-02-18T01:34:37.962Z,-2.50
2019-02-18T01:37:09.121Z,-2.50
2019-02-18T01:39:40.215Z,-2.50
2019-02-18T01:42:11.280Z,-2.50
2019-02-18T01:44:42.339Z,-2.60
2019-02-18T01:47:13.499Z,-2.60
2019-02-18T01:49:44.607Z,-2.60
2019-02-18T01:52:15.666Z,-2.70
2019-02-18T01:54:46.767Z,-2.70
2019-02-18T01:57:17.875Z,-2.70
2019-02-18T01:59:48.923Z,-2.70
2019-02-18T02:02:20.006Z,-2.70
2019-02-18T02:04:52.159Z,-2.80
2019-02-18T02:07:23.211Z,-2.80
2019-02-18T02:09:54.324Z,-2.80
2019-02-18T02:12:25.754Z,-2.70
2019-02-18T02:14:56.832Z,-2.70
2019-02-18T02:17:27.933Z,-2.70
2019-02-18T02:19:59.308Z,-2.70
2019-02-18T02:22:30.385Z,-2.80
2019-02-18T02:25:01.449Z,-2.80
2019-02-18T02:27:32.610Z,-2.80
2019-02-18T02:30:03.896Z,-2.90
2019-02-18T02:32:35.000Z,-2.90
2019-02-18T02:35:06.135Z,-2.90
2019-02-18T02:37:37.293Z,-2.90
2019-02-18T02:40:09.201Z,-2.80
2019-02-18T02:42:40.309Z,-2.80
2019-02-18T02:45:11.516Z,-2.80
2019-02-18T02:47:42.628Z,-2.90
2019-02-18T02:50:13.939Z,-2.90
2019-02-18T02:52:45.007Z,-3.00
2019-02-18T02:55:16.163Z,-3.00
2019-02-18T02:57:47.261Z,-3.00
2019-02-18T03:00:18.381Z,-3.10
2019-02-18T03:02:49.484Z,-3.10
2019-02-18T03:05:21.002Z,-3.10
2019-02-18T03:07:52.053Z,-3.10
2019-02-18T03:10:23.234Z,-3.00
2019-02-18T03:12:54.306Z,-2.90
2019-02-18T03:15:25.399Z,-2.80
2019-02-18T03:17:56.491Z,-2.80
2019-02-18T03:20:27.566Z,-2.70
2019-02-18T03:22:58.681Z,-2.70
2019-02-18T03:25:30.458Z,-2.70
2019-02-18T03:28:18.267Z,-2.80
2019-02-18T03:31:05.240Z,-2.80
2019-02-18T03:33:43.261Z,-2.90
2019-02-18T03:36:14.340Z,-2.90
2019-02-18T03:38:46.495Z,-2.80
2019-02-18T03:41:17.566Z,-2.80
2019-02-18T03:43:48.627Z,-2.90
2019-02-18T03:46:19.726Z,-2.80
2019-02-18T03:48:50.818Z,-2.90
2019-02-18T03:51:21.878Z,-2.80
2019-02-18T03:53:53.050Z,-2.80
2019-02-18T03:56:24.107Z,-2.60
2019-02-18T03:58:55.210Z,-2.40
2019-02-18T04:01:26.331Z,-2.40
2019-02-18T04:03:57.433Z,-2.40
2019-02-18T04:06:28.515Z,-2.60
2019-02-18T04:08:59.622Z,-2.70
2019-02-18T04:11:30.860Z,-2.80
2019-02-18T04:14:02.073Z,-2.90
2019-02-18T04:16:33.209Z,-3.00
2019-02-18T04:19:04.288Z,-3.00
2019-02-18T04:21:35.414Z,-3.00
2019-02-18T04:24:06.479Z,-3.10
2019-02-18T04:26:40.710Z,-3.10
2019-02-18T04:29:11.894Z,-3.10
2019-02-18T04:31:42.988Z,-3.20
2019-02-18T04:34:14.041Z,-3.30
2019-02-18T04:36:46.132Z,-3.30
2019-02-18T04:39:17.216Z,-3.30
2019-02-18T04:41:48.290Z,-3.40
2019-02-18T04:44:19.389Z,-3.40
2019-02-18T04:46:50.435Z,-3.40
2019-02-18T04:49:21.644Z,-3.50
2019-02-18T04:51:52.698Z,-3.50
2019-02-18T04:54:23.810Z,-3.50
2019-02-18T04:56:54.935Z,-3.50
2019-02-18T04:59:26.012Z,-3.50
2019-02-18T05:01:57.115Z,-3.50
2019-02-18T05:04:28.219Z,-3.50
2019-02-18T05:06:59.370Z,-3.40
2019-02-18T05:09:30.376Z,-3.40
2019-02-18T05:12:01.472Z,-3.40
2019-02-18T05:14:32.646Z,-3.50
2019-02-18T05:17:03.651Z,-3.50
2019-02-18T05:19:34.731Z,-3.50
2019-02-18T05:22:05.859Z,-3.50
2019-02-18T05:24:36.970Z,-3.50
2019-02-18T05:27:08.044Z,-3.60
2019-02-18T05:29:39.171Z,-3.60
2019-02-18T05:32:10.217Z,-3.50
2019-02-18T05:34:41.331Z,-3.50
2019-02-18T05:37:12.438Z,-3.50
2019-02-18T05:39:43.541Z,-3.40
2019-02-18T05:42:15.203Z,-3.40
2019-02-18T05:44:46.818Z,-3.40
2019-02-18T05:47:18.028Z,-3.40
2019-02-18T05:49:49.334Z,-3.50
2019-02-18T05:52:20.390Z,-3.50
2019-02-18T05:54:51.558Z,-3.60
2019-02-18T05:57:23.007Z,-3.60
2019-02-18T05:59:54.324Z,-3.70
2019-02-18T06:02:25.585Z,-3.80
2019-02-18T06:04:56.645Z,-3.80
2019-02-18T06:07:27.890Z,-3.80
2019-02-18T06:09:58.932Z,-3.80
2019-02-18T06:12:30.025Z,-3.70
2019-02-18T06:15:02.173Z,-3.70
2019-02-18T06:17:33.346Z,-3.70
2019-02-18T06:20:07.737Z,-3.60
2019-02-18T06:22:39.877Z,-3.60
2019-02-18T06:25:10.978Z,-3.50
2019-02-18T06:27:42.068Z,-3.50
2019-02-18T06:30:13.147Z,-3.40
2019-02-18T06:32:44.216Z,-3.40
2019-02-18T06:35:15.330Z,-3.20
2019-02-18T06:37:46.393Z,-3.10
2019-02-18T06:40:17.556Z,-2.90
2019-02-18T06:42:48.676Z,-2.80
2019-02-18T06:45:38.637Z,-2.70
2019-02-18T06:48:31.887Z,-2.60
2019-02-18T06:51:02.982Z,-2.50
2019-02-18T06:53:34.065Z,-2.40
2019-02-18T06:56:06.300Z,-2.20
2019-02-18T06:58:50.123Z,-2.10
2019-02-18T07:01:29.758Z,-2.00
2019-02-18T07:04:22.839Z,-1.90
2019-02-18T07:07:03.003Z,-1.80
2019-02-18T07:09:52.958Z,-1.80
2019-02-18T07:12:27.572Z,-1.70
2019-02-18T07:14:58.704Z,-1.60
2019-02-18T07:17:29.797Z,-1.40
2019-02-18T07:20:00.839Z,-1.30
2019-02-18T07:22:33.087Z,-1.20
2019-02-18T07:25:04.231Z,-1.00
2019-02-18T07:27:35.342Z,-0.80
2019-02-18T07:30:08.374Z,-0.70
2019-02-18T07:32:39.493Z,-0.50
2019-02-18T07:35:10.763Z,-0.30
2019-02-18T07:37:42.002Z,-0.10
2019-02-18T07:40:13.725Z,0.10
2019-02-18T07:42:44.838Z,0.30
2019-02-18T07:45:15.935Z,0.50
2019-02-18T07:47:47.009Z,0.70
2019-02-18T07:50:20.663Z,0.90
2019-02-18T07:52:50.951Z,1.00
2019-02-18T07:55:22.019Z,1.20
2019-02-18T07:57:53.139Z,1.40
2019-02-18T08:00:24.188Z,1.70
2019-02-18T08:02:55.333Z,1.90
2019-02-18T08:05:26.386Z,2.10
2019-02-18T08:07:57.511Z,2.20
2019-02-18T08:10:28.593Z,2.30
2019-02-18T08:12:59.679Z,2.50
2019-02-18T08:15:30.810Z,2.70
2019-02-18T08:18:01.883Z,2.80
2019-02-18T08:20:32.993Z,3.00
2019-02-18T08:23:04.048Z,3.10
2019-02-18T08:25:35.111Z,3.30
2019-02-18T08:28:06.203Z,3.40
2019-02-18T08:30:37.228Z,3.60
2019-02-18T08:33:08.326Z,3.90
2019-02-18T08:35:39.454Z,4.10
2019-02-18T08:38:10.531Z,4.40
2019-02-18T08:40:41.578Z,4.70
2019-02-18T08:43:12.793Z,4.80
2019-02-18T08:45:44.006Z,5.00
2019-02-18T08:48:15.108Z,5.20
2019-02-18T08:50:46.181Z,5.30
2019-02-18T08:53:17.327Z,5.40
2019-02-18T08:55:48.688Z,5.50
2019-02-18T08:58:19.773Z,5.70
2019-02-18T09:00:50.901Z,5.90
2019-02-18T09:03:22.074Z,6.00
2019-02-18T09:05:53.135Z,6.10
2019-02-18T09:08:24.200Z,6.20
2019-02-18T09:10:55.341Z,6.30
2019-02-18T09:13:26.405Z,6.50
2019-02-18T09:16:00.059Z,6.60
2019-02-18T09:18:30.391Z,6.80
2019-02-18T09:21:01.483Z,6.90
2019-02-18T09:23:50.202Z,7.10
2019-02-18T09:26:21.322Z,7.20
2019-02-18T09:28:52.355Z,7.40
2019-02-18T09:31:28.286Z,7.50
2019-02-18T09:33:59.452Z,7.60
2019-02-18T09:36:30.533Z,7.70
2019-02-18T09:39:01.669Z,7.80
2019-02-18T09:41:33.889Z,7.90
2019-02-18T09:44:05.144Z,8.20
2019-02-18T09:46:36.283Z,8.30
2019-02-18T09:49:07.611Z,8.40
2019-02-18T09:51:38.743Z,8.50
2019-02-18T09:54:10.030Z,8.70
2019-02-18T09:56:41.277Z,8.90
2019-02-18T09:59:12.355Z,9.00
2019-02-18T10:01:43.436Z,9.10
2019-02-18T10:04:14.514Z,9.30
2019-02-18T10:06:45.700Z,9.50
2019-02-18T10:09:18.014Z,9.60
2019-02-18T10:11:49.298Z,9.80
2019-02-18T10:14:20.730Z,9.90
2019-02-18T10:16:52.029Z,10.10
2019-02-18T10:19:23.247Z,10.20
2019-02-18T10:21:54.525Z,10.30
2019-02-18T10:24:25.658Z,10.50
2019-02-18T10:26:56.762Z,10.60
2019-02-18T10:29:27.951Z,10.60
2019-02-18T10:31:59.112Z,10.80
2019-02-18T10:34:31.324Z,11.00
2019-02-18T10:37:02.530Z,11.20
2019-02-18T10:39:33.602Z,11.40
2019-02-18T10:42:04.868Z,11.50
2019-02-18T10:44:36.204Z,11.70
2019-02-18T10:47:07.408Z,11.90
2019-02-18T10:49:38.679Z,12.00
2019-02-18T10:52:09.921Z,12.00
2019-02-18T10:54:40.996Z,12.20
2019-02-18T10:57:12.129Z,12.40
2019-02-18T10:59:43.312Z,12.50
2019-02-18T11:02:14.833Z,12.70
2019-02-18T11:04:46.025Z,12.80
2019-02-18T11:07:17.189Z,13.00
2019-02-18T11:09:48.270Z,13.10
2019-02-18T11:12:19.388Z,13.10
2019-02-18T11:14:50.531Z,13.30
2019-02-18T11:17:21.744Z,13.40
2019-02-18T11:19:52.840Z,13.50
2019-02-18T11:22:24.035Z,13.60
2019-02-18T11:24:55.191Z,13.60
2019-02-18T11:27:26.323Z,13.70
2019-02-18T11:29:57.404Z,13.80
2019-02-18T11:32:28.554Z,13.90
2019-02-18T11:35:00.640Z,13.90
2019-02-18T11:37:32.021Z,14.10
2019-02-18T11:40:03.171Z,14.20
2019-02-18T11:42:34.254Z,14.40
2019-02-18T11:45:05.567Z,14.50
2019-02-18T11:47:36.733Z,14.60
2019-02-18T11:50:08.685Z,14.60
2019-02-18T11:52:41.084Z,14.70
2019-02-18T11:55:12.374Z,14.80
2019-02-18T11:57:44.016Z,15.00
2019-02-18T12:00:15.406Z,15.10
2019-02-18T12:02:46.578Z,15.30
2019-02-18T12:05:17.741Z,15.30
2019-02-18T12:07:48.913Z,15.50
2019-02-18T12:10:21.047Z,15.50
2019-02-18T12:12:55.736Z,15.50
2019-02-18T12:15:28.093Z,15.60
2019-02-18T12:17:59.139Z,15.80
2019-02-18T12:20:30.255Z,16.00
2019-02-18T12:23:01.423Z,16.10
2019-02-18T12:25:32.499Z,16.10
2019-02-18T12:28:03.592Z,16.20
2019-02-18T12:30:34.759Z,16.30
2019-02-18T12:33:05.828Z,16.50
2019-02-18T12:35:37.006Z,16.60
2019-02-18T12:38:08.211Z,16.80
2019-02-18T12:40:39.474Z,16.70
2019-02-18T12:43:12.206Z,16.80
2019-02-18T12:45:43.440Z,16.70
2019-02-18T12:48:14.515Z,16.70
2019-02-18T12:50:45.637Z,16.70
2019-02-18T12:53:16.987Z,16.80
2019-02-18T12:55:48.275Z,16.80
2019-02-18T12:58:19.436Z,16.80
2019-02-18T13:00:50.708Z,16.80
2019-02-18T13:03:22.188Z,16.80
2019-02-18T13:05:53.662Z,16.90
2019-02-18T13:08:25.158Z,16.90
2019-02-18T13:10:56.712Z,16.90
2019-02-18T13:13:28.239Z,17.00
2019-02-18T13:15:59.855Z,17.10
2019-02-18T13:18:31.489Z,17.20
2019-02-18T13:21:02.855Z,17.10
2019-02-18T13:23:34.270Z,17.20
2019-02-18T13:26:05.661Z,17.30
2019-02-18T13:28:38.402Z,17.20
2019-02-18T13:31:10.314Z,17.30
2019-02-18T13:33:42.054Z,17.40
2019-02-18T13:36:15.558Z,17.40
2019-02-18T13:38:47.310Z,17.40
2019-02-18T13:41:18.676Z,17.30
2019-02-18T13:43:50.092Z,17.20
2019-02-18T13:46:21.391Z,17.10
2019-02-18T13:48:52.576Z,17.20
2019-02-18T13:51:24.485Z,17.20
2019-02-18T13:53:55.856Z,17.30
2019-02-18T13:56:27.003Z,17.40
2019-02-18T13:58:58.225Z,17.40
2019-02-18T14:01:29.452Z,17.30
2019-02-18T14:04:01.638Z,17.30
2019-02-18T14:06:32.783Z,17.40
2019-02-18T14:09:05.643Z,17.50
2019-02-18T14:11:38.853Z,17.50
2019-02-18T14:14:10.226Z,17.60
2019-02-18T14:16:41.939Z,17.60
2019-02-18T14:19:13.643Z,17.60
2019-02-18T14:21:44.908Z,17.60
2019-02-18T14:24:16.166Z,17.60
2019-02-18T14:26:47.413Z,17.60
2019-02-18T14:29:18.640Z,17.70
2019-02-18T14:31:50.138Z,17.80
2019-02-18T14:34:21.311Z,17.80
2019-02-18T14:36:52.930Z,17.80
2019-02-18T14:39:25.996Z,17.90
2019-02-18T14:41:57.587Z,17.90
2019-02-18T14:44:29.395Z,17.90
2019-02-18T14:47:00.977Z,17.90
2019-02-18T14:49:32.151Z,18.10
2019-02-18T14:52:04.013Z,18.20
2019-02-18T14:54:35.464Z,18.20
2019-02-18T14:57:06.733Z,18.30
2019-02-18T14:59:38.167Z,18.30
2019-02-18T15:02:10.105Z,18.40
2019-02-18T15:04:41.786Z,18.40
2019-02-18T15:07:13.151Z,18.50
2019-02-18T15:09:44.475Z,18.60
2019-02-18T15:12:15.652Z,18.60
2019-02-18T15:14:46.850Z,18.40
2019-02-18T15:17:18.894Z,18.00
2019-02-18T15:19:50.156Z,17.50
2019-02-18T15:22:21.486Z,16.80
2019-02-18T15:24:52.862Z,16.20
2019-02-18T15:27:24.468Z,15.60
2019-02-18T15:29:55.706Z,15.10
2019-02-18T15:32:27.093Z,14.60
2019-02-18T15:34:58.417Z,14.20
2019-02-18T15:37:29.893Z,13.90
2019-02-18T15:40:01.328Z,13.50
2019-02-18T15:42:32.814Z,13.20
2019-02-18T15:45:04.543Z,12.90
2019-02-18T15:47:35.792Z,12.60
2019-02-18T15:50:07.496Z,12.40
2019-02-18T15:52:38.734Z,12.10
2019-02-18T15:55:10.150Z,11.90
2019-02-18T15:57:41.454Z,11.60
2019-02-18T16:00:16.439Z,11.30
2019-02-18T16:02:48.084Z,11.00
2019-02-18T16:05:19.261Z,10.80
2019-02-18T16:07:50.558Z,10.50
2019-02-18T16:10:21.688Z,10.20
2019-02-18T16:12:52.917Z,10.00
2019-02-18T16:15:24.115Z,9.70
2019-02-18T16:17:55.232Z,9.40
2019-02-18T16:20:26.431Z,9.20
2019-02-18T16:22:57.561Z,9.00
2019-02-18T16:25:28.765Z,8.80
2019-02-18T16:27:59.865Z,8.50
2019-02-18T16:30:30.977Z,8.20
2019-02-18T16:33:02.066Z,8.00
2019-02-18T16:35:33.572Z,7.80
2019-02-18T16:38:04.709Z,7.60
2019-02-18T16:40:36.243Z,7.30
2019-02-18T16:43:07.442Z,7.10
2019-02-18T16:45:38.980Z,6.90
2019-02-18T16:48:10.459Z,6.80
2019-02-18T16:50:41.553Z,6.60
2019-02-18T16:53:12.652Z,6.40
2019-02-18T16:55:43.779Z,6.30
2019-02-18T16:58:14.927Z,6.10
2019-02-18T17:00:46.089Z,6.00
2019-02-18T17:03:17.303Z,5.90
2019-02-18T17:05:48.400Z,5.80
2019-02-18T17:08:19.594Z,5.60
2019-02-18T17:10:50.787Z,5.40
2019-02-18T17:13:22.092Z,5.30
2019-02-18T17:15:53.250Z,5.20
2019-02-18T17:18:24.321Z,5.00
2019-02-18T17:20:55.759Z,4.90
2019-02-18T17:23:26.906Z,4.80
2019-02-18T17:25:58.188Z,4.70
2019-02-18T17:28:29.489Z,4.60
2019-02-18T17:31:00.618Z,4.50
2019-02-18T17:33:32.052Z,4.30
2019-02-18T17:36:03.244Z,4.20
2019-02-18T17:38:36.118Z,4.10
2019-02-18T17:41:07.255Z,4.00
2019-02-18T17:43:38.533Z,3.90
2019-02-18T17:46:10.086Z,3.80
2019-02-18T17:48:41.239Z,3.70
2019-02-18T17:51:12.438Z,3.70
2019-02-18T17:53:43.566Z,3.60
2019-02-18T17:56:14.845Z,3.50
2019-02-18T17:58:47.182Z,3.50
2019-02-18T18:01:18.408Z,3.40
2019-02-18T18:03:49.573Z,3.30
2019-02-18T18:06:20.968Z,3.20
2019-02-18T18:08:54.075Z,3.10
2019-02-18T18:11:25.473Z,3.00
2019-02-18T18:13:56.761Z,2.90
2019-02-18T18:16:28.244Z,2.90
2019-02-18T18:18:59.619Z,2.80
2019-02-18T18:21:30.840Z,2.70
2019-02-18T18:24:02.281Z,2.70
2019-02-18T18:26:33.499Z,2.60
2019-02-18T18:29:04.862Z,2.50
2019-02-18T18:31:36.164Z,2.50
2019-02-18T18:34:07.468Z,2.40
2019-02-18T18:36:38.625Z,2.40
2019-02-18T18:39:09.994Z,2.30
2019-02-18T18:41:41.388Z,2.20
2019-02-18T18:44:12.588Z,2.20
2019-02-18T18:46:44.237Z,2.10
2019-02-18T18:49:15.499Z,2.00
2019-02-18T18:51:46.846Z,1.90
2019-02-18T18:54:18.035Z,1.80
2019-02-18T18:56:49.304Z,1.80
2019-02-18T18:59:20.519Z,1.70
2019-02-18T19:01:51.995Z,1.70
2019-02-18T19:04:23.190Z,1.60
2019-02-18T19:06:54.492Z,1.60
2019-02-18T19:09:25.804Z,1.50
2019-02-18T19:11:57.861Z,1.40
2019-02-18T19:14:29.565Z,1.40
2019-02-18T19:17:01.730Z,1.30
2019-02-18T19:19:33.104Z,1.20
2019-02-18T19:22:04.375Z,1.10
2019-02-18T19:24:35.668Z,1.00
2019-02-18T19:27:07.394Z,0.90
2019-02-18T19:29:38.759Z,0.90
2019-02-18T19:32:10.699Z,0.80
2019-02-18T19:34:41.983Z,0.80
2019-02-18T19:37:13.590Z,0.70
2019-02-18T19:39:45.881Z,0.70
2019-02-18T19:42:18.513Z,0.60
2019-02-18T19:44:58.579Z,0.50
2019-02-18T19:47:30.115Z,0.50
2019-02-18T19:50:02.023Z,0.50
2019-02-18T19:52:33.388Z,0.40
2019-02-18T19:55:05.560Z,0.40
2019-02-18T19:57:38.536Z,0.30
2019-02-18T20:00:11.527Z,0.30
2019-02-18T20:02:42.863Z,0.20
2019-02-18T20:05:14.459Z,0.20
2019-02-18T20:07:45.779Z,0.10
2019-02-18T20:10:17.455Z,0.00
2019-02-18T20:12:48.690Z,0.00
2019-02-18T20:15:21.214Z,-0.10
2019-02-18T20:17:55.074Z,-0.10
2019-02-18T20:20:26.669Z,-0.10
2019-02-18T20:23:00.111Z,-0.10
2019-02-18T20:25:32.289Z,-0.20
2019-02-18T20:28:03.782Z,-0.20
2019-02-18T20:30:35.407Z,-0.30
2019-02-18T20:33:06.728Z,-0.40
2019-02-18T20:35:39.098Z,-0.40
2019-02-18T20:38:10.547Z,-0.50
2019-02-18T20:40:41.691Z,-0.50
2019-02-18T20:43:12.936Z,-0.50
2019-02-18T20:45:44.319Z,-0.60
2019-02-18T20:48:15.627Z,-0.60
2019-02-18T20:50:47.121Z,-0.60
2019-02-18T20:53:18.359Z,-0.70
2019-02-18T20:55:50.462Z,-0.70
2019-02-18T20:58:21.616Z,-0.80
2019-02-18T21:00:52.952Z,-0.80
2019-02-18T21:03:24.941Z,-0.80
2019-02-18T21:05:57.206Z,-0.90
2019-02-18T21:08:30.269Z,-0.90
2019-02-18T21:11:01.400Z,-1.00
2019-02-18T21:13:32.745Z,-1.00
2019-02-18T21:16:04.266Z,-1.10
2019-02-18T21:18:35.671Z,-1.10
2019-02-18T21:21:08.273Z,-1.20
2019-02-18T21:23:41.516Z,-1.20
2019-02-18T21:26:12.772Z,-1.20
2019-02-18T21:28:44.190Z,-1.20
2019-02-18T21:31:15.635Z,-1.10
2019-02-18T21:33:46.890Z,-1.10
2019-02-18T21:36:18.354Z,-1.10
2019-02-18T21:38:49.678Z,-1.10
2019-02-18T21:41:20.850Z,-1.10
2019-02-18T21:43:52.222Z,-1.20
2019-02-18T21:46:23.558Z,-1.30
2019-02-18T21:48:55.790Z,-1.30
2019-02-18T21:51:27.326Z,-1.40
2019-02-18T21:53:58.881Z,-1.50
2019-02-18T21:56:30.133Z,-1.60
2019-02-18T21:59:01.389Z,-1.70
2019-02-18T22:01:32.560Z,-1.70
2019-02-18T22:04:03.645Z,-1.70
2019-02-18T22:06:34.787Z,-1.80
2019-02-18T22:09:15.754Z,-1.80
2019-02-18T22:11:47.480Z,-1.80
2019-02-18T22:14:19.185Z,-1.90
2019-02-18T22:16:50.730Z,-1.90
2019-02-18T22:19:21.856Z,-1.90
2019-02-18T22:21:52.971Z,-1.90
2019-02-18T22:24:24.077Z,-1.90
2019-02-18T22:26:55.156Z,-1.90
2019-02-18T22:29:26.349Z,-2.00
2019-02-18T22:31:57.903Z,-2.00
2019-02-18T22:34:29.176Z,-2.00
2019-02-18T22:37:00.826Z,-2.00
2019-02-18T22:39:54.911Z,-2.00
2019-02-18T22:42:31.096Z,-2.10
2019-02-18T22:45:02.391Z,-2.10
2019-02-18T22:47:33.768Z,-2.10
2019-02-18T22:50:05.368Z,-2.10
2019-02-18T22:52:37.062Z,-2.00
2019-02-18T22:55:08.877Z,-2.00
2019-02-18T22:57:40.046Z,-2.10
2019-02-18T23:00:43.678Z,-2.10
2019-02-18T23:03:15.978Z,-2.20
2019-02-18T23:05:47.203Z,-2.30
2019-02-18T23:08:18.593Z,-2.30
2019-02-18T23:10:49.794Z,-2.30
2019-02-18T23:13:21.279Z,-2.30
2019-02-18T23:15:52.400Z,-2.30
2019-02-18T23:18:23.741Z,-2.20
2019-02-18T23:20:54.921Z,-2.20
2019-02-18T23:23:26.229Z,-2.30
2019-02-18T23:25:57.410Z,-2.20
2019-02-18T23:28:28.648Z,-2.20
2019-02-18T23:30:59.856Z,-2.20
2019-02-18T23:33:31.070Z,-2.20
2019-02-18T23:36:02.244Z,-2.30
2019-02-18T23:38:33.498Z,-2.40
2019-02-18T23:41:04.669Z,-2.40
2019-02-18T23:43:35.776Z,-2.50
2019-02-18T23:46:06.900Z,-2.40
2019-02-18T23:48:38.116Z,-2.40
2019-02-18T23:51:09.259Z,-2.40
2019-02-18T23:53:40.456Z,-2.50
2019-02-18T23:56:11.809Z,-2.50
2019-02-18T23:58:42.866Z,-2.60
